createdAt,value
2018-02-10T00:00:50.141Z,14.73
2018-02-10T00:03:19.390Z,14.20
2018-02-10T00:05:49.364Z,12.90
2018-02-10T00:08:20.315Z,15.43
2018-02-10T00:10:49.541Z,15.80
2018-02-10T00:13:19.570Z,14.93
2018-02-10T00:15:48.804Z,14.80
2018-02-10T00:18:18.029Z,14.43
2018-02-10T00:20:47.249Z,14.93
2018-02-10T00:23:17.271Z,14.50
2018-02-10T00:25:47.252Z,15.13
2018-02-10T00:28:16.456Z,14.70
2018-02-10T00:30:45.683Z,14.57
2018-02-10T00:33:14.917Z,15.63
2018-02-10T00:35:44.168Z,15.17
2018-02-10T00:38:14.171Z,13.87
2018-02-10T00:40:44.184Z,16.60
2018-02-10T00:43:13.404Z,15.17
2018-02-10T00:45:43.395Z,16.00
2018-02-10T00:48:12.810Z,15.67
2018-02-10T00:50:42.814Z,15.60
2018-02-10T00:53:12.018Z,15.80
2018-02-10T00:55:42.020Z,15.73
2018-02-10T00:58:12.725Z,16.63
2018-02-10T01:00:41.945Z,15.73
2018-02-10T01:03:11.966Z,16.07
2018-02-10T01:05:41.238Z,15.53
2018-02-10T01:08:10.472Z,15.90
2018-02-10T01:10:39.723Z,16.90
2018-02-10T01:13:08.959Z,15.70
2018-02-10T01:15:38.206Z,15.30
2018-02-10T01:18:07.502Z,14.77
2018-02-10T01:20:36.727Z,17.13
2018-02-10T01:23:05.975Z,16.43
2018-02-10T01:25:36.012Z,15.57
2018-02-10T01:28:06.043Z,16.10
2018-02-10T01:30:35.353Z,15.97
2018-02-10T01:33:04.705Z,15.10
2018-02-10T01:35:34.670Z,15.60
2018-02-10T01:38:03.944Z,18.60
2018-02-10T01:40:33.918Z,16.20
2018-02-10T01:43:04.688Z,16.80
2018-02-10T01:45:33.940Z,16.03
2018-02-10T01:48:03.166Z,15.70
2018-02-10T01:50:33.175Z,17.53
2018-02-10T01:53:03.163Z,17.83
2018-02-10T01:55:32.457Z,18.03
2018-02-10T01:58:01.670Z,16.53
2018-02-10T02:00:30.918Z,19.50
2018-02-10T02:03:00.174Z,14.90
2018-02-10T02:05:29.421Z,17.57
2018-02-10T02:07:58.626Z,16.80
2018-02-10T02:10:27.881Z,17.53
2018-02-10T02:12:57.075Z,18.10
2018-02-10T02:15:26.310Z,16.60
2018-02-10T02:17:55.731Z,16.60
2018-02-10T02:20:25.032Z,15.57
2018-02-10T02:22:54.394Z,16.10
2018-02-10T02:25:23.631Z,16.80
2018-02-10T02:27:52.992Z,17.00
2018-02-10T02:30:23.034Z,16.67
2018-02-10T02:32:52.249Z,16.03
2018-02-10T02:35:21.510Z,16.60
2018-02-10T02:37:51.498Z,15.80
2018-02-10T02:40:20.715Z,17.60
2018-02-10T02:42:49.922Z,18.30
2018-02-10T02:45:19.216Z,17.83
2018-02-10T02:47:49.208Z,18.20
2018-02-10T02:50:18.441Z,16.93
2018-02-10T02:52:47.666Z,16.90
2018-02-10T02:55:16.864Z,18.20
2018-02-10T02:57:46.085Z,17.03
2018-02-10T03:00:15.310Z,17.90
2018-02-10T03:02:45.289Z,16.77
2018-02-10T03:05:14.511Z,17.30
2018-02-10T03:07:43.734Z,17.00
2018-02-10T03:10:12.990Z,16.53
2018-02-10T03:12:42.206Z,17.27
2018-02-10T03:15:12.238Z,17.20
2018-02-10T03:17:42.919Z,18.67
2018-02-10T03:20:12.222Z,19.20
2018-02-10T03:22:41.673Z,18.03
2018-02-10T03:25:11.698Z,16.37
2018-02-10T03:27:40.907Z,17.97
2018-02-10T03:30:10.890Z,18.90
2018-02-10T03:32:40.886Z,18.13
2018-02-10T03:35:10.147Z,20.10
2018-02-10T03:37:40.095Z,17.40
2018-02-10T03:40:09.322Z,19.50
2018-02-10T03:42:39.334Z,20.63
2018-02-10T03:45:09.311Z,19.10
2018-02-10T03:47:38.575Z,19.33
2018-02-10T03:50:08.547Z,17.70
2018-02-10T03:52:37.807Z,18.70
2018-02-10T03:55:07.026Z,20.20
2018-02-10T03:57:36.304Z,19.97
2018-02-10T04:00:05.511Z,19.97
2018-02-10T04:02:34.827Z,20.90
2018-02-10T04:05:04.159Z,19.57
2018-02-10T04:07:34.184Z,19.67
2018-02-10T04:10:04.153Z,20.40
2018-02-10T04:12:33.386Z,20.30
2018-02-10T04:15:04.105Z,21.40
2018-02-10T04:17:33.342Z,19.80
2018-02-10T04:20:02.662Z,21.27
2018-02-10T04:22:31.927Z,21.20
2018-02-10T04:25:01.927Z,18.63
2018-02-10T04:27:31.171Z,20.97
2018-02-10T04:30:00.455Z,22.90
2018-02-10T04:32:29.674Z,21.37
2018-02-10T04:34:59.054Z,21.40
2018-02-10T04:37:29.090Z,19.70
2018-02-10T04:39:58.347Z,20.60
2018-02-10T04:42:28.327Z,21.00
2018-02-10T04:44:57.615Z,20.00
2018-02-10T04:47:27.579Z,21.27
2018-02-10T04:49:57.610Z,20.50
2018-02-10T04:52:26.838Z,22.43
2018-02-10T04:54:56.070Z,19.47
2018-02-10T04:57:25.274Z,18.63
2018-02-10T04:59:54.502Z,19.10
2018-02-10T05:02:23.747Z,21.07
2018-02-10T05:04:52.968Z,21.73
2018-02-10T05:07:22.289Z,20.60
2018-02-10T05:09:52.318Z,19.60
2018-02-10T05:12:22.303Z,19.50
2018-02-10T05:14:51.523Z,20.20
2018-02-10T05:17:21.532Z,21.73
2018-02-10T05:19:51.497Z,20.60
2018-02-10T05:22:20.879Z,19.77
2018-02-10T05:24:50.106Z,20.73
2018-02-10T05:27:19.354Z,20.50
2018-02-10T05:29:48.598Z,21.83
2018-02-10T05:32:17.836Z,21.50
2018-02-10T05:34:47.866Z,21.87
2018-02-10T05:37:17.082Z,20.23
2018-02-10T05:39:47.087Z,19.23
2018-02-10T05:42:17.062Z,20.80
2018-02-10T05:44:46.310Z,22.33
2018-02-10T05:47:15.529Z,19.03
2018-02-10T05:49:44.873Z,20.87
2018-02-10T05:52:14.093Z,21.20
2018-02-10T05:54:44.086Z,22.60
2018-02-10T05:57:13.318Z,24.13
2018-02-10T05:59:42.679Z,23.10
2018-02-10T06:02:11.927Z,26.40
2018-02-10T06:04:41.203Z,25.37
2018-02-10T06:07:11.219Z,27.90
2018-02-10T06:09:41.189Z,27.13
2018-02-10T06:12:10.449Z,26.20
2018-02-10T06:14:39.670Z,26.03
2018-02-10T06:17:08.890Z,26.13
2018-02-10T06:19:38.137Z,24.90
2018-02-10T06:22:07.404Z,27.17
2018-02-10T06:24:36.642Z,26.57
2018-02-10T06:27:06.618Z,26.00
2018-02-10T06:29:35.834Z,26.27
2018-02-10T06:32:05.838Z,28.23
2018-02-10T06:34:35.250Z,26.00
2018-02-10T06:37:05.244Z,27.17
2018-02-10T06:39:34.497Z,25.70
2018-02-10T06:42:04.625Z,28.50
2018-02-10T06:44:33.857Z,26.30
2018-02-10T06:47:03.106Z,26.40
2018-02-10T06:49:32.343Z,24.80
2018-02-10T06:52:03.076Z,27.10
2018-02-10T06:54:32.347Z,26.67
2018-02-10T06:57:01.530Z,26.80
2018-02-10T06:59:30.840Z,24.77
2018-02-10T07:02:00.054Z,26.73
2018-02-10T07:04:29.409Z,26.87
2018-02-10T07:06:59.398Z,25.83
2018-02-10T07:09:28.743Z,24.03
2018-02-10T07:11:59.032Z,25.17
2018-02-10T07:14:28.290Z,25.70
2018-02-10T07:16:57.527Z,25.27
2018-02-10T07:19:27.627Z,25.40
2018-02-10T07:21:57.043Z,23.40
2018-02-10T07:24:27.060Z,28.90
2018-02-10T07:26:56.333Z,24.80
2018-02-10T07:29:25.754Z,24.83
2018-02-10T07:31:55.010Z,21.43
2018-02-10T07:34:24.258Z,23.23
2018-02-10T07:36:54.248Z,22.50
2018-02-10T07:39:23.473Z,22.20
2018-02-10T07:41:52.744Z,22.80
2018-02-10T07:44:22.019Z,24.60
2018-02-10T07:46:51.243Z,22.13
2018-02-10T07:49:20.495Z,24.17
2018-02-10T07:51:50.558Z,23.30
2018-02-10T07:54:19.796Z,21.00
2018-02-10T07:56:49.790Z,23.80
2018-02-10T07:59:19.045Z,22.40
2018-02-10T08:01:49.010Z,22.50
2018-02-10T08:04:19.003Z,24.03
2018-02-10T08:06:48.246Z,24.47
2018-02-10T08:09:17.469Z,21.10
2018-02-10T08:11:46.734Z,21.60
2018-02-10T08:14:16.734Z,25.03
2018-02-10T08:16:45.975Z,23.00
2018-02-10T08:19:15.979Z,23.23
2018-02-10T08:21:45.212Z,23.10
2018-02-10T08:24:14.452Z,21.93
2018-02-10T08:26:44.782Z,22.90
2018-02-10T08:29:14.772Z,24.07
2018-02-10T08:31:45.702Z,22.03
2018-02-10T08:34:14.895Z,20.83
2018-02-10T08:36:44.137Z,21.83
2018-02-10T08:39:14.118Z,21.93
2018-02-10T08:41:43.375Z,23.10
2018-02-10T08:44:12.722Z,21.60
2018-02-10T08:46:42.730Z,22.10
2018-02-10T08:49:11.941Z,23.10
2018-02-10T08:51:41.175Z,23.40
2018-02-10T08:54:10.437Z,23.90
2018-02-10T08:56:39.659Z,23.27
2018-02-10T08:59:09.663Z,21.93
2018-02-10T09:01:39.687Z,23.03
2018-02-10T09:04:09.857Z,21.53
2018-02-10T09:06:39.057Z,21.60
2018-02-10T09:09:08.370Z,24.67
2018-02-10T09:11:37.625Z,22.47
2018-02-10T09:14:06.852Z,22.20
2018-02-10T09:16:36.145Z,23.57
2018-02-10T09:19:05.393Z,22.30
2018-02-10T09:21:34.818Z,21.93
2018-02-10T09:24:04.307Z,22.07
2018-02-10T09:26:34.311Z,21.77
2018-02-10T09:29:03.510Z,22.17
2018-02-10T09:31:33.491Z,24.97
2018-02-10T09:34:02.768Z,24.90
2018-02-10T09:36:32.005Z,22.73
2018-02-10T09:39:02.185Z,23.17
2018-02-10T09:41:31.377Z,21.23
2018-02-10T09:44:00.683Z,21.50
2018-02-10T09:46:29.951Z,22.23
2018-02-10T09:48:59.331Z,21.10
2018-02-10T09:51:28.575Z,21.40
2018-02-10T09:53:57.847Z,21.00
2018-02-10T09:56:27.112Z,20.43
2018-02-10T09:58:56.318Z,19.80
2018-02-10T10:01:25.580Z,19.80
2018-02-10T10:03:54.790Z,23.57
2018-02-10T10:06:24.046Z,19.70
2018-02-10T10:08:54.216Z,18.07
2018-02-10T10:11:23.479Z,20.03
2018-02-10T10:13:52.716Z,17.53
2018-02-10T10:16:21.985Z,19.97
2018-02-10T10:18:51.230Z,18.90
2018-02-10T10:21:21.336Z,18.00
2018-02-10T10:23:50.587Z,18.70
2018-02-10T10:26:19.816Z,18.77
2018-02-10T10:28:49.057Z,17.60
2018-02-10T10:31:19.968Z,17.50
2018-02-10T10:33:49.381Z,17.60
2018-02-10T10:36:18.587Z,16.90
2018-02-10T10:38:48.600Z,16.77
2018-02-10T10:41:17.810Z,18.87
2018-02-10T10:43:47.146Z,15.33
2018-02-10T10:46:16.317Z,17.47
2018-02-10T10:48:45.588Z,18.07
2018-02-10T10:51:14.851Z,16.70
2018-02-10T10:53:44.109Z,15.33
2018-02-10T10:56:14.098Z,16.10
2018-02-10T10:58:43.566Z,15.53
2018-02-10T11:01:12.769Z,16.70
2018-02-10T11:03:41.991Z,14.33
2018-02-10T11:06:11.293Z,16.00
2018-02-10T11:08:40.506Z,16.20
2018-02-10T11:11:10.540Z,15.30
2018-02-10T11:13:40.534Z,15.87
2018-02-10T11:16:10.608Z,15.07
2018-02-10T11:18:39.840Z,14.10
2018-02-10T11:21:09.096Z,15.23
2018-02-10T11:23:38.308Z,14.43
2018-02-10T11:26:07.637Z,14.40
2018-02-10T11:28:37.023Z,14.23
2018-02-10T11:31:06.285Z,12.90
2018-02-10T11:33:35.545Z,14.03
2018-02-10T11:36:04.762Z,14.73
2018-02-10T11:38:34.012Z,12.83
2018-02-10T11:41:03.230Z,13.93
2018-02-10T11:43:33.350Z,12.87
2018-02-10T11:46:02.607Z,13.97
2018-02-10T11:48:31.849Z,14.40
2018-02-10T11:51:01.063Z,13.47
2018-02-10T11:53:31.175Z,14.73
2018-02-10T11:56:01.209Z,14.33
2018-02-10T11:58:30.448Z,14.83
2018-02-10T12:00:59.718Z,14.00
2018-02-10T12:03:29.008Z,18.97
2018-02-10T12:05:58.558Z,15.53
2018-02-10T12:08:27.794Z,15.67
2018-02-10T12:10:57.022Z,14.97
2018-02-10T12:13:26.512Z,17.33
2018-02-10T12:15:56.503Z,16.70
2018-02-10T12:18:26.524Z,17.27
2018-02-10T12:20:56.533Z,16.10
2018-02-10T12:23:25.803Z,15.63
2018-02-10T12:25:55.042Z,17.33
2018-02-10T12:28:24.259Z,17.50
2018-02-10T12:30:54.248Z,18.00
2018-02-10T12:33:23.507Z,18.63
2018-02-10T12:35:52.775Z,17.90
2018-02-10T12:38:21.972Z,16.20
2018-02-10T12:40:51.987Z,18.90
2018-02-10T12:43:21.491Z,18.13
2018-02-10T12:45:50.727Z,19.53
2018-02-10T12:48:26.109Z,18.30
2018-02-10T12:50:55.313Z,19.70
2018-02-10T12:53:25.333Z,18.43
2018-02-10T12:55:55.358Z,20.20
2018-02-10T12:58:25.560Z,18.27
2018-02-10T13:00:54.805Z,20.00
2018-02-10T13:03:24.042Z,20.67
2018-02-10T13:05:53.334Z,16.63
2018-02-10T13:08:22.551Z,19.57
2018-02-10T13:10:52.569Z,20.00
2018-02-10T13:13:22.665Z,19.57
2018-02-10T13:15:51.968Z,21.30
2018-02-10T13:18:21.254Z,22.27
2018-02-10T13:20:50.505Z,20.23
2018-02-10T13:23:20.560Z,17.93
2018-02-10T13:25:50.551Z,19.10
2018-02-10T13:28:19.881Z,19.40
2018-02-10T13:30:49.215Z,16.30
2018-02-10T13:33:19.195Z,14.60
2018-02-10T13:35:48.537Z,15.47
2018-02-10T13:38:17.853Z,16.47
2018-02-10T13:40:47.863Z,15.30
2018-02-10T13:43:17.874Z,13.27
2018-02-10T13:45:47.870Z,13.50
2018-02-10T13:48:39.329Z,13.03
2018-02-10T13:51:08.566Z,12.90
2018-02-10T13:53:37.774Z,12.30
2018-02-10T13:56:07.057Z,12.83
2018-02-10T13:58:37.043Z,13.33
2018-02-10T14:01:06.337Z,16.90
2018-02-10T14:03:35.604Z,12.27
2018-02-10T14:06:06.462Z,15.03
2018-02-10T14:08:35.776Z,14.43
2018-02-10T14:11:05.016Z,13.80
2018-02-10T14:13:34.240Z,12.93
2018-02-10T14:16:03.501Z,13.30
2018-02-10T14:18:32.845Z,13.73
2018-02-10T14:21:02.873Z,12.80
2018-02-10T14:23:32.903Z,13.80
2018-02-10T14:26:02.240Z,13.20
2018-02-10T14:28:31.663Z,14.30
2018-02-10T14:31:00.889Z,13.30
2018-02-10T14:33:30.875Z,12.90
2018-02-10T14:36:00.106Z,13.33
2018-02-10T14:38:30.131Z,13.33
2018-02-10T14:40:59.565Z,13.40
2018-02-10T14:43:28.765Z,14.70
2018-02-10T14:45:58.044Z,16.23
2018-02-10T14:48:27.286Z,17.70
2018-02-10T14:50:56.570Z,16.67
2018-02-10T14:53:25.831Z,18.47
2018-02-10T14:55:55.115Z,17.13
2018-02-10T14:58:25.149Z,16.97
2018-02-10T15:00:54.632Z,16.63
2018-02-10T15:03:24.608Z,17.30
2018-02-10T15:05:53.835Z,17.13
2018-02-10T15:08:23.827Z,17.97
2018-02-10T15:10:53.063Z,17.73
2018-02-10T15:13:22.305Z,17.60
2018-02-10T15:15:51.570Z,15.73
2018-02-10T15:18:20.804Z,17.80
2018-02-10T15:20:50.042Z,17.90
2018-02-10T15:23:20.069Z,18.63
2018-02-10T15:25:50.040Z,17.20
2018-02-10T15:28:19.699Z,16.27
2018-02-10T15:31:06.304Z,16.70
2018-02-10T15:33:53.891Z,17.27
2018-02-10T15:36:23.114Z,15.70
2018-02-10T15:38:53.146Z,16.80
2018-02-10T15:41:23.202Z,15.27
2018-02-10T15:43:53.164Z,16.43
2018-02-10T15:46:22.396Z,16.20
2018-02-10T15:48:51.628Z,15.60
2018-02-10T15:51:20.881Z,21.80
2018-02-10T15:53:50.251Z,15.33
2018-02-10T15:56:19.446Z,14.83
2018-02-10T15:58:49.447Z,14.27
2018-02-10T16:01:18.688Z,18.70
2018-02-10T16:03:48.012Z,18.13
2018-02-10T16:06:17.232Z,19.20
2018-02-10T16:08:46.478Z,19.70
2018-02-10T16:11:15.695Z,17.80
2018-02-10T16:13:44.923Z,19.63
2018-02-10T16:16:14.188Z,17.50
2018-02-10T16:18:43.439Z,17.87
2018-02-10T16:21:12.656Z,17.67
2018-02-10T16:23:42.666Z,18.03
2018-02-10T16:26:13.115Z,17.40
2018-02-10T16:28:42.331Z,18.47
2018-02-10T16:31:11.549Z,18.03
2018-02-10T16:33:42.340Z,15.93
2018-02-10T16:36:12.388Z,17.97
2018-02-10T16:38:41.628Z,18.00
2018-02-10T16:41:11.857Z,18.60
2018-02-10T16:43:41.219Z,18.50
2018-02-10T16:46:10.481Z,18.73
2018-02-10T16:48:40.487Z,18.93
2018-02-10T16:51:10.520Z,18.73
2018-02-10T16:53:39.906Z,18.97
2018-02-10T16:56:09.946Z,17.60
2018-02-10T16:58:39.176Z,19.60
2018-02-10T17:01:08.381Z,19.20
2018-02-10T17:03:37.700Z,17.83
2018-02-10T17:06:08.047Z,18.83
2018-02-10T17:08:37.452Z,17.57
2018-02-10T17:11:07.502Z,18.57
2018-02-10T17:13:36.730Z,19.57
2018-02-10T17:16:05.930Z,20.33
2018-02-10T17:18:35.171Z,18.50
2018-02-10T17:21:04.397Z,18.00
2018-02-10T17:23:33.659Z,16.07
2018-02-10T17:26:02.899Z,17.60
2018-02-10T17:28:32.202Z,16.63
2018-02-10T17:31:01.463Z,16.10
2018-02-10T17:33:30.708Z,15.90
2018-02-10T17:35:59.971Z,18.10
2018-02-10T17:38:29.238Z,14.07
2018-02-10T17:40:59.382Z,15.57
2018-02-10T17:43:28.685Z,13.63
2018-02-10T17:45:58.079Z,13.27
2018-02-10T17:48:28.048Z,13.57
2018-02-10T17:50:57.342Z,13.50
2018-02-10T17:53:28.115Z,16.70
2018-02-10T17:55:58.101Z,13.87
2018-02-10T17:58:28.171Z,12.63
2018-02-10T18:00:57.453Z,14.10
2018-02-10T18:03:26.696Z,14.30
2018-02-10T18:05:56.009Z,14.80
2018-02-10T18:08:25.284Z,13.33
2018-02-10T18:10:54.569Z,14.10
2018-02-10T18:13:23.811Z,17.87
2018-02-10T18:15:55.001Z,17.30
2018-02-10T18:18:24.249Z,19.60
2018-02-10T18:20:53.550Z,21.47
2018-02-10T18:23:22.741Z,20.30
2018-02-10T18:25:51.999Z,19.67
2018-02-10T18:28:21.236Z,20.90
2018-02-10T18:30:50.511Z,20.67
2018-02-10T18:33:19.804Z,19.80
2018-02-10T18:35:49.088Z,21.10
2018-02-10T18:38:18.358Z,22.43
2018-02-10T18:40:48.399Z,21.47
2018-02-10T18:43:18.422Z,19.53
2018-02-10T18:45:47.766Z,20.97
2018-02-10T18:48:16.999Z,19.57
2018-02-10T18:50:47.001Z,21.30
2018-02-10T18:53:17.018Z,19.60
2018-02-10T18:55:46.248Z,20.97
2018-02-10T18:58:15.596Z,21.27
2018-02-10T19:00:44.911Z,21.23
2018-02-10T19:03:14.183Z,18.90
2018-02-10T19:05:44.190Z,19.40
2018-02-10T19:08:13.474Z,20.87
2018-02-10T19:10:42.730Z,20.50
2018-02-10T19:13:12.801Z,19.80
2018-02-10T19:15:42.011Z,19.90
2018-02-10T19:18:11.337Z,20.23
2018-02-10T19:20:41.368Z,22.13
2018-02-10T19:23:11.384Z,23.00
2018-02-10T19:25:40.623Z,22.43
2018-02-10T19:28:09.938Z,24.07
2018-02-10T19:30:39.192Z,20.67
2018-02-10T19:33:09.268Z,20.23
2018-02-10T19:35:38.546Z,20.80
2018-02-10T19:38:08.032Z,20.90
2018-02-10T19:40:37.292Z,23.00
2018-02-10T19:43:06.933Z,18.97
2018-02-10T19:45:36.335Z,20.90
2018-02-10T19:48:05.610Z,22.93
2018-02-10T19:50:35.611Z,26.60
2018-02-10T19:53:05.629Z,21.10
2018-02-10T19:55:35.242Z,18.27
2018-02-10T19:58:05.308Z,19.50
2018-02-10T20:00:34.575Z,19.00
2018-02-10T20:03:04.622Z,14.77
2018-02-10T20:05:34.175Z,16.80
2018-02-10T20:08:04.382Z,14.53
2018-02-10T20:10:34.455Z,14.80
2018-02-10T20:13:03.686Z,15.63
2018-02-10T20:15:32.936Z,13.93
2018-02-10T20:18:02.170Z,12.77
2018-02-10T20:20:31.752Z,13.00
2018-02-10T20:23:01.031Z,12.53
2018-02-10T20:25:31.069Z,13.40
2018-02-10T20:28:00.381Z,13.13
2018-02-10T20:30:29.611Z,11.43
2018-02-10T20:32:58.858Z,10.97
2018-02-10T20:35:28.216Z,10.00
2018-02-10T20:37:57.444Z,11.10
2018-02-10T20:40:26.690Z,10.23
2018-02-10T20:42:56.000Z,9.53
2018-02-10T20:45:25.284Z,10.67
2018-02-10T20:47:54.643Z,9.30
2018-02-10T20:50:24.703Z,11.67
2018-02-10T20:52:54.140Z,10.27
2018-02-10T20:55:24.319Z,10.17
2018-02-10T20:57:53.579Z,10.40
2018-02-10T21:00:23.624Z,10.87
2018-02-10T21:02:52.874Z,10.13
2018-02-10T21:05:22.186Z,9.07
2018-02-10T21:07:52.313Z,9.00
2018-02-10T21:10:22.285Z,10.10
2018-02-10T21:12:51.561Z,9.10
2018-02-10T21:15:20.820Z,9.07
2018-02-10T21:17:50.256Z,9.17
2018-02-10T21:20:19.473Z,9.87
2018-02-10T21:22:48.801Z,9.60
2018-02-10T21:25:18.823Z,16.33
2018-02-10T21:27:48.883Z,12.17
2018-02-10T21:30:18.353Z,13.10
2018-02-10T21:32:49.141Z,11.70
2018-02-10T21:35:18.580Z,10.10
2018-02-10T21:37:48.182Z,12.40
2018-02-10T21:40:18.304Z,8.50
2018-02-10T21:42:47.527Z,9.93
2018-02-10T21:45:17.592Z,10.20
2018-02-10T21:47:46.871Z,9.30
2018-02-10T21:50:16.191Z,8.60
2018-02-10T21:52:45.426Z,9.10
2018-02-10T21:55:15.526Z,9.50
2018-02-10T21:57:44.793Z,8.83
2018-02-10T22:00:14.164Z,8.50
2018-02-10T22:02:43.614Z,7.47
2018-02-10T22:05:13.738Z,8.37
2018-02-10T22:07:43.039Z,6.97
2018-02-10T22:10:12.330Z,7.33
2018-02-10T22:12:41.611Z,8.00
2018-02-10T22:15:10.839Z,6.30
2018-02-10T22:17:40.107Z,6.13
2018-02-10T22:20:09.377Z,6.87
2018-02-10T22:22:38.690Z,6.40
2018-02-10T22:25:07.960Z,6.10
2018-02-10T22:27:37.976Z,6.20
2018-02-10T22:30:08.046Z,6.10
2018-02-10T22:32:37.315Z,6.33
2018-02-10T22:35:06.554Z,6.07
2018-02-10T22:37:35.918Z,6.10
2018-02-10T22:40:05.187Z,6.00
2018-02-10T22:42:35.162Z,5.60
2018-02-10T22:45:04.445Z,6.43
2018-02-10T22:47:33.668Z,6.40
2018-02-10T22:50:02.920Z,7.00
2018-02-10T22:52:32.929Z,6.33
2018-02-10T22:55:02.361Z,6.60
2018-02-10T22:57:31.617Z,6.93
2018-02-10T23:00:00.894Z,7.47
2018-02-10T23:02:30.102Z,6.57
2018-02-10T23:04:59.313Z,6.43
2018-02-10T23:07:29.294Z,6.47
2018-02-10T23:09:58.653Z,7.03
2018-02-10T23:12:27.870Z,5.83
2018-02-10T23:14:57.090Z,6.33
2018-02-10T23:17:26.527Z,5.77
2018-02-10T23:19:55.771Z,6.23
2018-02-10T23:22:24.987Z,6.67
2018-02-10T23:24:54.205Z,6.40
2018-02-10T23:27:23.458Z,6.27
2018-02-10T23:29:52.699Z,6.60
2018-02-10T23:32:22.246Z,7.50
2018-02-10T23:34:51.507Z,6.00
2018-02-10T23:37:20.730Z,6.13
2018-02-10T23:39:50.729Z,6.03
2018-02-10T23:42:19.993Z,6.10
2018-02-10T23:44:49.235Z,6.67
2018-02-10T23:47:19.214Z,6.37
2018-02-10T23:49:48.460Z,5.27
2018-02-10T23:52:18.423Z,6.23
2018-02-10T23:54:47.635Z,5.30
2018-02-10T23:57:16.884Z,7.73
2018-02-10T23:59:46.116Z,6.07
